Cohagen, Montana
Current Conditions -  °F | °C
As of 1:53 PM on Thursday 23 Oct 2014 (Local Time) from KMLS Reporting Station
Clear Clear  
Wind Chill: 67°   Ceiling: Unl
Heat Index: 67°   Visibility: 10mi
Dew Point: 31°   Wind: 7mph
Humidity: 26%   Direction: 250°WSW
Pressure: 29.84"   Gusts: NA
Location:  47.05°N, 106.62°W
Report Text: KMLS 231953Z AUTO 25006KT 10SM CLR 19/M01 A2984 RMK AO2 SLP105 T01941006
Loading
Personal Weather Stations






























Interactive Weather Map
Tropical Storm Tracking
New forecast layout! Learn more

10-Day Weather Forecast

Advertisements
Track Severe Weather on mobile